Nearby METAR Reports

 

EBAW - Antwerpen, Belgium
Distance from station: NW 22km
Updated: 2018-12-16 09:20
Mist, Mostly cloudy
Mist, Mostly cloudy
 Wind from SSW
Wind: SSW 13 km/h
Temperature: 3°C
Wind Chill: -1°C
Dew Point: 3°C
Humidity: 100%
Barometer: 1009 hPa
Summary: Mist
Clouds: Mostly cloudy
Visibility: 1 km
Cloud details: Mostly cloudy 61 m
2018/12/16 08:20 EBAW 160820Z 21007KT 180V240 1400 R11/1900N R29/P2000N BR BKN002 03/03 Q1009 BECMG 2500 BR
EBBR - Brussel, Belgium
Distance from station: SW 24km
Updated: 2018-12-16 09:20
Mist, Mostly cloudy
Mist, Mostly cloudy
 Wind from SSW
Wind: SSW 15 km/h
Temperature: 3°C
Wind Chill: -1°C
Dew Point: 2°C
Humidity: 93%
Barometer: 1009 hPa
Summary: Mist
Clouds: Mostly cloudy
Visibility: 5 km
Cloud details: Mostly cloudy 152 m
Mostly cloudy 1219 m
2018/12/16 08:20 EBBR 160820Z 21008KT 4800 BR BKN005 BKN040 03/02 Q1009 NOSIG
 
EBDT - Schaffen, Belgium
Distance from station: ESE 26km
Updated: 2018-12-16 09:25
Mist, Overcast
Mist, Overcast
 Wind from S
Wind: S 9 km/h
Temperature: 1°C
Wind Chill: -2°C
Dew Point: 1°C
Humidity: 100%
Barometer: 1010 hPa
Summary: Mist
Clouds: Overcast
Visibility: 2 km
Cloud details: Overcast 61 m
2018/12/16 08:25 EBDT 160825Z AUTO 19005KT 1800 BR OVC002/// 01/01 Q1010 AMB
EBBE - Beauvechain, Belgium
Distance from station: S 36km
Updated: 2018-12-16 09:25
Mist, Mostly cloudy
Mist, Mostly cloudy
 Wind from SW
Wind: SW 19 km/h
Temperature: 1°C
Wind Chill: -4°C
Dew Point: 1°C
Humidity: 100%
Barometer: 1010 hPa
Summary: Mist
Clouds: Mostly cloudy
Visibility: 4 km
Cloud details: Mostly cloudy 61 m
2018/12/16 08:25 EBBE 160825Z AUTO 22010KT 3900 BR BKN002/// 01/01 Q1010 AMB
 
EHWO - Woensdrecht Rnla, Netherlands
Distance from station: NNW 50km
Updated: 2018-12-16 09:31
Fog, Overcast
Fog, Overcast
 Wind from SW
Wind: SW 15 km/h
Temperature: 3°C
Wind Chill: -1°C
Dew Point: 3°C
Humidity: 100%
Barometer: 1009 hPa
Summary: Fog
Clouds: Overcast
Visibility: 1 km
Cloud details: Overcast 30 m
2018/12/16 08:31 EHWO 160831Z AUTO 22008KT 0800 FG VV001 03/03 Q1009 AMB
EBBL - Kleine-Brogel, Belgium
Distance from station: ENE 54km
Updated: 2018-12-16 09:25
Mist, Overcast
Mist, Overcast
 Wind from S
Wind: S 6 km/h
Temperature: 1°C
Dew Point: 1°C
Humidity: 100%
Barometer: 1010 hPa
Summary: Mist
Clouds: Overcast
Visibility: 1 km
Cloud details: Overcast 91 m
2018/12/16 08:25 EBBL 160825Z AUTO 19003KT 1400 BR OVC003/// 01/01 Q1010 AMB
 
EHGR - Gilze-Rijen Rnla, Netherlands
Distance from station: NNE 57km
Updated: 2018-12-16 09:25
Fog, Overcast
Fog, Overcast
 Wind from S
Wind: S 13 km/h
Temperature: 1°C
Wind Chill: -3°C
Dew Point: 1°C
Humidity: 100%
Barometer: 1009 hPa
Summary: Fog
Clouds: Overcast
Visibility: 0 km
Cloud details: Overcast 0 m
2018/12/16 08:25 EHGR 160825Z AUTO 19007KT 140V220 0350 FG VV000 01/01 Q1009 RED
EHEH - Eindhoven Rnlafb, Netherlands
Distance from station: NE 63km
Updated: 2018-12-16 09:38
Fog, Overcast
Fog, Overcast
 Wind from S
Wind: S 13 km/h
Temperature: 1°C
Wind Chill: -3°C
Dew Point: 1°C
Humidity: 100%
Barometer: 1009 hPa
Summary: Fog
Clouds: Overcast
Visibility: 1 km
Cloud details: Mostly cloudy 30 m
Overcast 61 m
2018/12/16 08:38 EHEH 160838Z AUTO 19007KT 0650 R21/0750D FG BKN001 OVC002 01/01 Q1009 RED 19007KT 1000 BR SCT003 BKN005 BECMG 0450 FG SCT001 BKN003
 
EBCI - Charleroi, Belgium
Distance from station: SSW 70km
Updated: 2018-12-16 09:20
Mist, Mostly cloudy
Mist, Mostly cloudy
 Wind from SSW
Wind: SSW 20 km/h
Temperature: 2°C
Wind Chill: -3°C
Dew Point: 1°C
Humidity: 93%
Barometer: 1010 hPa
Summary: Mist
Clouds: Mostly cloudy
Visibility: 4 km
Cloud details: Partly cloudy 91 m
Mostly cloudy 1219 m
2018/12/16 08:20 EBCI 160820Z 21011KT 4000 BR SCT003 BKN040 02/01 Q1010 TEMPO 1200 -SHRA BR BKN002
EBLG - Bierset, Belgium
Distance from station: SE 72km
Updated: 2018-12-16 09:20
Mist, Mostly cloudy
Mist, Mostly cloudy
 Wind from S
Wind: S 17 km/h
Temperature: 1°C
Wind Chill: -3°C
Dew Point: 0°C
Humidity: 93%
Barometer: 1010 hPa
Summary: Mist
Clouds: Mostly cloudy
Visibility: 5 km
Cloud details: Mostly cloudy 122 m
2018/12/16 08:20 EBLG 160820Z 18009KT 4800 BR BKN004 01/M00 Q1010 R22L/110595 TEMPO 3000 BR BKN003